Terminal Aerodrome Forecast
Issued by NWS

Home | Current Version | Previous Version | Text Only | Print | Product List | Glossary On
Versions: 1 2 3 4 5 6 7 8 9 10 11 12 13 14 15 16 17 18
925
FTUS46 KMFR 131726
TAFOTH
TAF
KOTH 131726Z 1318/1418 17008KT P6SM SCT025
     FM132300 20009KT P6SM -RA BKN035 OVC050
     FM140200 19015G25KT 5SM -RA BR BKN015 OVC025
     FM140800 21012G18KT 6SM -RA BR BKN008 OVC020=

USA.gov is the U.S. government's official web portal to all federal, state and local government web resources and services.